createdAt,value
2024-03-06T13:00:13.526Z,44.00
2024-03-06T13:01:42.152Z,44.70
2024-03-06T13:12:28.354Z,47.20
2024-03-06T13:31:05.307Z,32.90
2024-03-06T13:33:03.642Z,32.00
2024-03-06T13:35:31.036Z,38.90
2024-03-06T13:37:29.019Z,36.00
2024-03-06T13:41:52.488Z,30.20
2024-03-06T13:43:51.104Z,33.40
2024-03-06T13:45:19.528Z,33.40
2024-03-06T13:47:47.291Z,35.40
2024-03-06T13:54:06.795Z,30.20
2024-03-06T13:57:32.235Z,27.70
2024-03-06T14:01:26.869Z,27.40
2024-03-06T14:02:55.814Z,29.70
2024-03-06T14:07:48.773Z,35.80
2024-03-06T14:10:45.573Z,37.20
2024-03-06T14:19:59.573Z,32.90
2024-03-06T14:21:59.464Z,33.00
2024-03-06T14:23:26.687Z,31.50
2024-03-06T14:24:55.627Z,29.90
2024-03-06T14:26:53.970Z,30.50
2024-03-06T14:32:44.965Z,32.00
2024-03-06T14:34:43.621Z,33.90
2024-03-06T14:38:38.689Z,30.60
2024-03-06T14:41:05.212Z,34.40
2024-03-06T14:51:46.220Z,29.40
2024-03-06T14:55:40.446Z,24.20
2024-03-06T15:01:02.475Z,24.30
2024-03-06T15:03:29.730Z,25.00
2024-03-06T15:10:47.314Z,27.60
2024-03-06T15:14:57.889Z,34.90
2024-03-06T15:17:50.476Z,30.00
2024-03-06T15:20:08.460Z,28.00
2024-03-06T15:23:34.921Z,30.20
2024-03-06T15:25:03.914Z,26.50
2024-03-06T15:27:31.689Z,28.20
2024-03-06T15:29:59.361Z,31.30
2024-03-06T15:31:27.773Z,25.80
2024-03-06T15:33:55.655Z,28.60
2024-03-06T15:35:23.951Z,26.00
2024-03-06T15:36:55.261Z,27.80
2024-03-06T15:38:22.048Z,28.90
2024-03-06T15:40:49.137Z,28.10
2024-03-06T15:42:47.825Z,30.30
2024-03-06T15:45:15.847Z,34.10
2024-03-06T15:47:42.950Z,31.70
2024-03-06T15:49:41.389Z,32.10
2024-03-06T15:51:10.440Z,34.60
2024-03-06T15:52:39.420Z,31.80
2024-03-06T15:54:10.583Z,30.60
2024-03-06T15:56:31.873Z,31.00
2024-03-06T15:58:01.512Z,31.50
2024-03-06T15:59:36.175Z,34.00
2024-03-06T16:01:06.132Z,32.70
2024-03-06T16:02:34.007Z,34.10
2024-03-06T16:04:32.267Z,31.60
2024-03-06T16:06:11.160Z,33.40
2024-03-06T16:08:32.274Z,30.20
2024-03-06T16:10:01.920Z,28.00
2024-03-06T16:14:56.518Z,37.80
2024-03-06T16:16:56.589Z,37.20
2024-03-06T16:18:54.358Z,31.60
2024-03-06T16:23:38.825Z,38.00
2024-03-06T16:25:08.886Z,32.20
2024-03-06T16:26:38.908Z,32.80
2024-03-06T16:28:07.997Z,33.10
2024-03-06T16:29:37.008Z,37.90
2024-03-06T16:31:06.165Z,35.40
2024-03-06T16:33:33.494Z,32.90
2024-03-06T16:36:00.599Z,32.80
2024-03-06T16:37:29.493Z,32.60
2024-03-06T16:38:58.524Z,35.60
2024-03-06T16:42:52.808Z,36.10
2024-03-06T16:44:51.104Z,35.70
2024-03-06T16:46:20.943Z,35.70
2024-03-06T16:47:50.405Z,38.90
2024-03-06T16:49:19.617Z,40.00
2024-03-06T16:51:17.406Z,40.80
2024-03-06T16:54:42.575Z,40.10
2024-03-06T16:57:09.621Z,41.00
2024-03-06T16:59:08.071Z,37.90
2024-03-06T17:01:34.721Z,41.20
2024-03-06T17:03:03.731Z,39.40
2024-03-06T17:04:32.667Z,36.70
2024-03-06T17:07:57.717Z,37.10
2024-03-06T17:09:27.055Z,37.30
2024-03-06T17:10:55.721Z,36.80
2024-03-06T17:15:47.713Z,40.00
2024-03-06T17:17:16.700Z,34.80
2024-03-06T17:21:12.217Z,37.00
2024-03-06T17:22:41.252Z,36.80
2024-03-06T17:24:10.932Z,42.80
2024-03-06T17:26:37.452Z,34.30
2024-03-06T17:34:25.398Z,37.80
2024-03-06T17:37:50.775Z,44.30
2024-03-06T17:39:19.403Z,40.50
2024-03-06T17:44:41.232Z,38.70
2024-03-06T17:50:32.192Z,39.90
2024-03-06T17:54:26.351Z,39.30
2024-03-06T17:57:51.876Z,41.40
2024-03-06T17:59:20.977Z,41.30
2024-03-06T18:02:17.568Z,42.00
2024-03-06T18:03:47.285Z,38.30
2024-03-06T18:05:15.695Z,41.40
2024-03-06T18:06:44.933Z,45.50
2024-03-06T18:08:43.055Z,42.70
2024-03-06T18:12:08.519Z,38.60
2024-03-06T18:13:37.543Z,41.70
2024-03-06T18:18:01.465Z,41.20
2024-03-06T18:19:30.758Z,39.90
2024-03-06T18:22:17.916Z,38.90
2024-03-06T18:23:47.132Z,40.30
2024-03-06T18:26:43.195Z,42.60
2024-03-06T18:31:06.897Z,44.10
2024-03-06T18:33:34.158Z,42.80
2024-03-06T18:35:03.164Z,39.60
2024-03-06T18:37:01.838Z,48.60
2024-03-06T18:39:00.129Z,52.20
2024-03-06T18:43:14.646Z,44.00
2024-03-06T18:44:44.048Z,41.00
2024-03-06T18:48:10.399Z,44.90
2024-03-06T18:52:34.410Z,38.60
2024-03-06T18:55:51.070Z,37.50
2024-03-06T18:57:21.161Z,41.20
2024-03-06T19:01:45.246Z,39.70
2024-03-06T19:04:12.735Z,44.00
2024-03-06T19:06:11.137Z,41.10
2024-03-06T19:09:08.458Z,37.10
2024-03-06T19:13:32.669Z,35.80
2024-03-06T19:15:02.261Z,34.70
2024-03-06T19:17:00.412Z,33.50
2024-03-06T19:18:59.128Z,38.90
2024-03-06T19:20:27.554Z,38.60
2024-03-06T19:22:25.818Z,42.50
2024-03-06T19:24:24.803Z,39.00
2024-03-06T19:25:53.540Z,32.30
2024-03-06T19:27:23.234Z,41.40
2024-03-06T19:30:19.371Z,37.10
2024-03-06T19:33:15.468Z,45.90
2024-03-06T19:35:42.512Z,37.10
2024-03-06T19:38:00.723Z,35.00
2024-03-06T19:41:26.170Z,44.10
2024-03-06T19:44:52.634Z,34.70
2024-03-06T19:46:21.562Z,42.50
2024-03-06T19:50:45.510Z,34.90
2024-03-06T19:53:13.125Z,39.50
2024-03-06T19:56:09.804Z,45.30
2024-03-06T19:58:07.840Z,35.10
2024-03-06T19:59:37.197Z,35.30
2024-03-06T20:01:06.452Z,42.40
2024-03-06T20:03:34.555Z,42.30
2024-03-06T20:05:33.195Z,37.40
2024-03-06T20:07:02.236Z,43.40
2024-03-06T20:08:31.299Z,45.10
2024-03-06T20:10:20.203Z,43.20
2024-03-06T20:14:16.361Z,43.10
2024-03-06T20:16:15.394Z,46.30
2024-03-06T20:18:12.807Z,41.80
2024-03-06T20:20:10.964Z,37.10
2024-03-06T20:22:09.177Z,40.00
2024-03-06T20:26:34.427Z,43.90
2024-03-06T20:29:52.621Z,43.60
2024-03-06T20:31:50.646Z,47.00
2024-03-06T20:33:19.728Z,38.10
2024-03-06T20:35:26.945Z,46.30
2024-03-06T20:36:47.412Z,41.40
2024-03-06T20:40:29.603Z,46.60
2024-03-06T20:41:58.358Z,37.50
2024-03-06T20:44:54.739Z,40.50
2024-03-06T20:46:23.772Z,46.30
2024-03-06T20:51:08.887Z,49.80
2024-03-06T20:53:57.304Z,43.60
2024-03-06T20:55:57.659Z,46.50
2024-03-06T20:57:26.325Z,43.90
2024-03-06T20:58:56.378Z,46.80
2024-03-06T21:09:10.721Z,42.10
2024-03-06T21:10:40.171Z,46.40
2024-03-06T21:13:35.946Z,49.00
2024-03-06T21:15:33.975Z,52.40
2024-03-06T21:17:03.053Z,44.00
2024-03-06T21:18:32.830Z,42.40
2024-03-06T21:20:02.385Z,48.40
2024-03-06T21:21:30.085Z,46.40
2024-03-06T21:23:28.310Z,37.50
2024-03-06T21:24:57.175Z,41.90
2024-03-06T21:27:24.300Z,47.60
2024-03-06T21:33:15.040Z,49.20
2024-03-06T21:35:13.082Z,49.30
2024-03-06T21:37:11.201Z,48.30
2024-03-06T21:40:08.097Z,41.40
2024-03-06T21:43:06.030Z,51.30
2024-03-06T21:45:03.443Z,45.70
2024-03-06T21:47:30.892Z,46.70
2024-03-06T21:49:58.117Z,49.50
2024-03-06T21:51:56.129Z,52.10
2024-03-06T21:54:23.270Z,46.00
2024-03-06T22:00:43.062Z,44.80
2024-03-06T22:08:01.433Z,50.00
2024-03-06T22:10:00.558Z,46.80
2024-03-06T22:11:29.580Z,52.50
2024-03-06T22:13:27.634Z,44.70
2024-03-06T22:15:54.853Z,45.90
2024-03-06T22:17:23.938Z,49.50
2024-03-06T22:22:47.827Z,47.70
2024-03-06T22:24:16.795Z,53.60
2024-03-06T22:28:11.112Z,48.30
2024-03-06T22:30:38.260Z,47.50
2024-03-06T22:32:36.709Z,52.00
2024-03-06T22:34:05.590Z,54.70
2024-03-06T22:36:06.623Z,50.80
2024-03-06T22:37:36.139Z,47.10
2024-03-06T22:41:21.696Z,47.10
2024-03-06T22:42:51.536Z,49.00
2024-03-06T22:44:21.654Z,50.40
2024-03-06T22:45:51.777Z,50.30
2024-03-06T22:48:22.511Z,52.90
2024-03-06T22:49:51.789Z,48.60
2024-03-06T22:52:21.435Z,51.00
2024-03-06T22:54:19.834Z,49.00
2024-03-06T22:56:18.149Z,42.20
2024-03-06T22:57:49.277Z,52.10
2024-03-06T23:00:47.221Z,52.60
2024-03-06T23:02:21.471Z,53.90
2024-03-06T23:03:46.327Z,41.30
2024-03-06T23:05:17.576Z,51.90
2024-03-06T23:06:46.768Z,60.70
2024-03-06T23:08:50.832Z,49.40
2024-03-06T23:14:23.065Z,50.50
2024-03-06T23:16:53.187Z,59.30
2024-03-06T23:19:50.973Z,47.30
2024-03-06T23:22:46.793Z,51.10
2024-03-06T23:24:17.241Z,54.30
2024-03-06T23:25:47.253Z,55.10
2024-03-06T23:28:46.582Z,54.00
2024-03-06T23:30:16.465Z,53.80
2024-03-06T23:32:15.812Z,45.50
2024-03-06T23:33:44.278Z,48.60
2024-03-06T23:36:46.560Z,51.70
2024-03-06T23:39:48.419Z,46.90
2024-03-06T23:41:48.925Z,54.80
2024-03-06T23:43:37.541Z,49.60
2024-03-06T23:47:49.125Z,51.20
2024-03-06T23:49:47.107Z,52.40
2024-03-06T23:52:16.568Z,51.70
2024-03-06T23:58:02.113Z,50.10
